createdAt,value
2023-08-08T00:00:30.582Z,2.47
2023-08-08T00:02:57.316Z,3.50
2023-08-08T00:05:24.180Z,9.20
2023-08-08T00:07:50.904Z,2.90
2023-08-08T00:10:17.662Z,4.80
2023-08-08T00:12:44.368Z,2.67
2023-08-08T00:15:11.065Z,4.80
2023-08-08T00:17:37.811Z,4.67
2023-08-08T00:20:05.130Z,2.63
2023-08-08T00:22:31.970Z,4.00
2023-08-08T00:24:59.242Z,3.50
2023-08-08T00:27:26.219Z,2.87
2023-08-08T00:29:54.393Z,4.50
2023-08-08T00:32:21.103Z,3.20
2023-08-08T00:34:47.723Z,2.50
2023-08-08T00:37:14.332Z,5.93
2023-08-08T00:39:43.663Z,4.10
2023-08-08T00:42:10.261Z,5.53
2023-08-08T00:44:38.750Z,3.37
2023-08-08T00:47:05.606Z,5.13
2023-08-08T00:49:32.230Z,4.20
2023-08-08T00:51:59.059Z,3.10
2023-08-08T00:54:26.279Z,2.73
2023-08-08T00:56:52.973Z,3.40
2023-08-08T00:59:20.591Z,3.03
2023-08-08T01:01:47.306Z,2.97
2023-08-08T01:04:14.284Z,4.67
2023-08-08T01:06:55.928Z,2.83
2023-08-08T01:09:38.382Z,3.17
2023-08-08T01:12:07.078Z,3.17
2023-08-08T01:14:35.319Z,3.50
2023-08-08T01:17:03.056Z,4.33
2023-08-08T01:19:33.908Z,3.43
2023-08-08T01:22:06.667Z,3.77
2023-08-08T01:24:38.255Z,4.60
2023-08-08T01:27:06.905Z,3.60
2023-08-08T01:29:33.702Z,5.27
2023-08-08T01:32:00.547Z,4.00
2023-08-08T01:34:27.531Z,5.20
2023-08-08T01:36:58.860Z,5.10
2023-08-08T01:39:31.653Z,3.37
2023-08-08T01:42:01.493Z,3.10
2023-08-08T01:44:30.320Z,9.63
2023-08-08T01:46:57.120Z,7.47
2023-08-08T01:49:23.765Z,6.20
2023-08-08T01:51:51.817Z,3.87
2023-08-08T01:54:18.562Z,3.37
2023-08-08T01:56:45.382Z,4.20
2023-08-08T01:59:13.672Z,5.70
2023-08-08T02:01:42.397Z,6.37
2023-08-08T02:04:09.076Z,5.53
2023-08-08T02:06:35.768Z,3.53
2023-08-08T02:09:02.501Z,3.90
2023-08-08T02:11:29.167Z,3.93
2023-08-08T02:13:55.825Z,4.43
2023-08-08T02:16:22.493Z,3.67
2023-08-08T02:18:49.155Z,4.40
2023-08-08T02:21:16.279Z,4.50
2023-08-08T02:23:42.942Z,3.70
2023-08-08T02:26:09.561Z,5.43
2023-08-08T02:28:36.468Z,4.90
2023-08-08T02:31:03.108Z,5.70
2023-08-08T02:33:30.081Z,5.67
2023-08-08T02:35:57.402Z,4.77
2023-08-08T02:38:24.035Z,6.47
2023-08-08T02:40:50.761Z,6.53
2023-08-08T02:43:17.897Z,4.70
2023-08-08T02:45:44.561Z,4.97
2023-08-08T02:48:13.445Z,5.30
2023-08-08T02:50:40.055Z,5.47
2023-08-08T02:53:07.868Z,5.07
2023-08-08T02:55:34.553Z,5.60
2023-08-08T02:58:03.501Z,4.07
2023-08-08T03:00:30.135Z,9.03
2023-08-08T03:02:56.842Z,3.23
2023-08-08T03:05:23.521Z,3.97
2023-08-08T03:07:50.139Z,5.20
2023-08-08T03:10:16.910Z,5.03
2023-08-08T03:12:43.523Z,4.40
2023-08-08T03:15:11.778Z,5.27
2023-08-08T03:17:38.882Z,3.47
2023-08-08T03:20:07.708Z,4.20
2023-08-08T03:22:34.803Z,5.73
2023-08-08T03:25:01.493Z,5.40
2023-08-08T03:27:28.117Z,5.23
2023-08-08T03:29:54.709Z,5.13
2023-08-08T03:32:21.400Z,7.27
2023-08-08T03:34:48.046Z,6.47
2023-08-08T03:37:14.838Z,5.37
2023-08-08T03:39:41.578Z,6.30
2023-08-08T03:42:08.643Z,4.83
2023-08-08T03:44:35.310Z,7.83
2023-08-08T03:47:13.752Z,9.37
2023-08-08T03:49:45.658Z,7.30
2023-08-08T03:52:12.650Z,4.00
2023-08-08T03:54:39.668Z,6.27
2023-08-08T03:57:06.365Z,7.63
2023-08-08T03:59:33.047Z,6.73
2023-08-08T04:01:59.876Z,4.87
2023-08-08T04:04:26.913Z,8.80
2023-08-08T04:06:53.679Z,6.57
2023-08-08T04:09:20.359Z,8.17
2023-08-08T04:11:47.012Z,8.23
2023-08-08T04:14:13.614Z,9.00
2023-08-08T04:16:40.865Z,12.17
2023-08-08T04:19:07.678Z,9.57
2023-08-08T04:21:34.357Z,7.97
2023-08-08T04:24:01.234Z,7.73
2023-08-08T04:26:28.021Z,9.03
2023-08-08T04:28:54.787Z,6.80
2023-08-08T04:31:21.518Z,6.40
2023-08-08T04:33:48.237Z,7.17
2023-08-08T04:36:14.894Z,9.53
2023-08-08T04:38:41.511Z,8.70
2023-08-08T04:41:08.141Z,9.23
2023-08-08T04:43:34.778Z,15.40
2023-08-08T04:46:01.440Z,9.47
2023-08-08T04:48:28.030Z,8.47
2023-08-08T04:50:54.616Z,10.53
2023-08-08T04:53:21.207Z,8.03
2023-08-08T04:55:47.810Z,9.43
2023-08-08T04:58:14.470Z,11.10
2023-08-08T05:00:41.156Z,10.03
2023-08-08T05:03:07.877Z,7.50
2023-08-08T05:05:36.794Z,10.53
2023-08-08T05:08:04.048Z,11.60
2023-08-08T05:10:32.349Z,10.17
2023-08-08T05:12:59.188Z,14.93
2023-08-08T05:15:25.776Z,7.07
2023-08-08T05:17:52.602Z,7.73
2023-08-08T05:20:19.257Z,10.03
2023-08-08T05:22:45.871Z,8.80
2023-08-08T05:25:12.507Z,13.03
2023-08-08T05:27:39.125Z,8.33
2023-08-08T05:30:06.396Z,7.60
2023-08-08T05:32:33.094Z,12.03
2023-08-08T05:35:01.606Z,11.77
2023-08-08T05:37:28.378Z,11.80
2023-08-08T05:39:55.135Z,11.40
2023-08-08T05:42:21.838Z,14.00
2023-08-08T05:44:48.501Z,11.50
2023-08-08T05:47:15.176Z,8.50
2023-08-08T05:49:44.497Z,12.97
2023-08-08T05:52:11.513Z,9.60
2023-08-08T05:54:38.417Z,12.50
2023-08-08T05:57:05.739Z,12.33
2023-08-08T05:59:32.381Z,13.77
2023-08-08T06:02:00.475Z,10.30
2023-08-08T06:04:27.521Z,8.20
2023-08-08T06:06:54.175Z,7.00
2023-08-08T06:09:20.970Z,11.33
2023-08-08T06:11:47.670Z,9.30
2023-08-08T06:14:14.344Z,8.70
2023-08-08T06:16:41.210Z,11.00
2023-08-08T06:19:07.998Z,15.43
2023-08-08T06:21:34.626Z,12.43
2023-08-08T06:24:01.255Z,9.90
2023-08-08T06:26:27.998Z,11.07
2023-08-08T06:28:54.623Z,12.83
2023-08-08T06:31:21.284Z,12.97
2023-08-08T06:33:48.833Z,12.13
2023-08-08T06:36:15.603Z,13.40
2023-08-08T06:38:42.362Z,11.47
2023-08-08T06:41:09.648Z,13.40
2023-08-08T06:43:36.252Z,13.93
2023-08-08T06:46:03.209Z,11.70
2023-08-08T06:48:29.920Z,12.90
2023-08-08T06:50:56.611Z,10.23
2023-08-08T06:53:24.133Z,15.83
2023-08-08T06:55:50.753Z,9.30
2023-08-08T06:58:17.380Z,12.37
2023-08-08T07:00:43.996Z,12.43
2023-08-08T07:03:11.377Z,15.80
2023-08-08T07:05:39.468Z,10.13
2023-08-08T07:08:06.374Z,13.23
2023-08-08T07:10:32.995Z,10.67
2023-08-08T07:12:59.598Z,8.03
2023-08-08T07:15:26.424Z,8.70
2023-08-08T07:17:53.282Z,11.40
2023-08-08T07:20:23.204Z,10.93
2023-08-08T07:22:49.842Z,9.97
2023-08-08T07:25:16.470Z,11.97
2023-08-08T07:27:43.171Z,9.40
2023-08-08T07:30:10.267Z,9.90
2023-08-08T07:32:37.033Z,11.30
2023-08-08T07:35:07.027Z,9.87
2023-08-08T07:37:34.574Z,8.20
2023-08-08T07:40:01.707Z,12.13
2023-08-08T07:42:28.456Z,10.60
2023-08-08T07:44:55.507Z,13.60
2023-08-08T07:47:22.197Z,13.07
2023-08-08T07:49:48.832Z,11.87
2023-08-08T07:52:15.464Z,8.23
2023-08-08T07:54:42.073Z,9.93
2023-08-08T07:57:08.751Z,10.07
2023-08-08T07:59:35.364Z,8.27
2023-08-08T08:02:02.404Z,7.23
2023-08-08T08:04:29.410Z,15.80
2023-08-08T08:06:56.020Z,10.43
2023-08-08T08:09:22.693Z,10.80
2023-08-08T08:11:49.345Z,8.23
2023-08-08T08:14:15.958Z,6.03
2023-08-08T08:16:42.710Z,8.90
2023-08-08T08:19:09.409Z,8.47
2023-08-08T08:21:36.146Z,10.97
2023-08-08T08:24:03.416Z,7.47
2023-08-08T08:26:30.077Z,6.67
2023-08-08T08:28:56.824Z,7.83
2023-08-08T08:31:23.526Z,8.13
2023-08-08T08:33:50.273Z,9.17
2023-08-08T08:36:17.066Z,9.70
2023-08-08T08:38:43.688Z,6.70
2023-08-08T08:41:13.933Z,8.30
2023-08-08T08:43:40.954Z,8.50
2023-08-08T08:46:10.426Z,7.97
2023-08-08T08:48:37.079Z,8.70
2023-08-08T08:51:04.301Z,9.23
2023-08-08T08:53:31.483Z,9.57
2023-08-08T08:55:58.692Z,8.60
2023-08-08T08:58:26.134Z,7.27
2023-08-08T09:00:53.617Z,6.83
2023-08-08T09:03:21.164Z,8.27
2023-08-08T09:05:49.496Z,9.07
2023-08-08T09:08:16.525Z,10.43
2023-08-08T09:10:43.306Z,7.57
2023-08-08T09:13:10.142Z,6.30
2023-08-08T09:15:36.921Z,7.23
2023-08-08T09:18:04.035Z,11.73
2023-08-08T09:20:31.815Z,6.73
2023-08-08T09:22:58.478Z,7.63
2023-08-08T09:25:27.013Z,6.57
2023-08-08T09:27:54.618Z,5.63
2023-08-08T09:30:22.026Z,6.87
2023-08-08T09:32:49.272Z,11.53
2023-08-08T09:35:16.521Z,8.47
2023-08-08T09:37:43.397Z,6.03
2023-08-08T09:40:12.899Z,9.17
2023-08-08T09:42:41.458Z,8.30
2023-08-08T09:45:09.966Z,6.33
2023-08-08T09:47:37.597Z,6.40
2023-08-08T09:50:08.040Z,8.73
2023-08-08T09:52:36.249Z,7.13
2023-08-08T09:55:04.299Z,7.87
2023-08-08T09:57:31.436Z,6.00
2023-08-08T09:59:58.759Z,7.90
2023-08-08T10:02:26.123Z,8.23
2023-08-08T10:04:53.893Z,7.73
2023-08-08T10:07:20.662Z,10.23
2023-08-08T10:09:47.391Z,7.93
2023-08-08T10:12:14.244Z,7.30
2023-08-08T10:14:43.885Z,11.77
2023-08-08T10:17:15.488Z,8.77
2023-08-08T10:19:51.544Z,7.63
2023-08-08T10:22:22.325Z,9.30
2023-08-08T10:24:50.121Z,6.07
2023-08-08T10:27:38.214Z,6.27
2023-08-08T10:30:08.422Z,6.27
2023-08-08T10:32:45.397Z,4.00
2023-08-08T10:35:13.131Z,5.50
2023-08-08T10:37:41.191Z,7.00
2023-08-08T10:40:09.157Z,6.97
2023-08-08T10:42:44.267Z,6.73
2023-08-08T10:45:15.913Z,6.13
2023-08-08T10:47:43.594Z,7.03
2023-08-08T10:50:15.732Z,5.17
2023-08-08T10:52:54.359Z,6.03
2023-08-08T10:55:27.299Z,4.20
2023-08-08T10:58:06.154Z,7.27
2023-08-08T11:00:34.423Z,7.37
2023-08-08T11:03:01.934Z,5.93
2023-08-08T11:05:33.051Z,5.83
2023-08-08T11:08:01.342Z,6.83
2023-08-08T11:10:34.084Z,6.70
2023-08-08T11:13:05.608Z,4.70
2023-08-08T11:15:37.507Z,4.97
2023-08-08T11:18:05.334Z,8.63
2023-08-08T11:20:34.242Z,7.13
2023-08-08T11:23:01.722Z,3.67
2023-08-08T11:25:31.505Z,6.00
2023-08-08T11:27:59.633Z,8.50
2023-08-08T11:30:30.313Z,8.77
2023-08-08T11:35:26.975Z,6.43
2023-08-08T11:37:55.165Z,5.63
2023-08-08T11:40:23.917Z,4.23
2023-08-08T11:42:52.462Z,6.10
2023-08-08T11:45:20.096Z,5.53
2023-08-08T11:47:51.678Z,6.40
2023-08-08T11:50:21.017Z,4.00
2023-08-08T11:52:47.979Z,5.17
2023-08-08T11:55:14.928Z,7.90
2023-08-08T11:57:42.058Z,6.63
2023-08-08T12:00:10.391Z,7.30
2023-08-08T12:02:37.098Z,7.83
2023-08-08T12:05:23.641Z,7.50
2023-08-08T12:07:51.433Z,6.17
2023-08-08T12:10:23.575Z,9.30
2023-08-08T12:12:59.011Z,4.97
2023-08-08T12:15:30.430Z,4.40
2023-08-08T12:17:57.314Z,7.93
2023-08-08T12:20:23.974Z,8.33
2023-08-08T12:22:50.618Z,6.83
2023-08-08T12:25:17.314Z,5.97
2023-08-08T12:27:43.928Z,4.87
2023-08-08T12:30:10.629Z,6.70
2023-08-08T12:32:37.295Z,4.43
2023-08-08T12:35:04.261Z,5.63
2023-08-08T12:37:30.929Z,6.10
2023-08-08T12:39:58.235Z,9.03
2023-08-08T12:42:24.922Z,6.83
2023-08-08T12:44:54.158Z,6.53
2023-08-08T12:47:22.280Z,5.30
2023-08-08T12:49:49.159Z,5.83
2023-08-08T12:52:16.016Z,4.23
2023-08-08T12:54:42.688Z,6.10
2023-08-08T12:57:10.165Z,7.03
2023-08-08T12:59:36.998Z,4.03
2023-08-08T13:02:04.478Z,3.87
2023-08-08T13:04:31.696Z,5.57
2023-08-08T13:06:58.466Z,6.77
2023-08-08T13:09:25.220Z,5.13
2023-08-08T13:11:51.883Z,5.17
2023-08-08T13:14:18.540Z,3.97
2023-08-08T13:16:45.267Z,6.00
2023-08-08T13:19:12.471Z,2.67
2023-08-08T13:21:39.154Z,4.50
2023-08-08T13:24:07.203Z,4.37
2023-08-08T13:26:33.849Z,6.03
2023-08-08T13:29:00.588Z,5.30
2023-08-08T13:31:27.195Z,3.63
2023-08-08T13:33:53.801Z,4.40
2023-08-08T13:36:20.395Z,6.33
2023-08-08T13:38:47.035Z,4.47
2023-08-08T13:41:13.679Z,7.13
2023-08-08T13:43:40.367Z,3.93
2023-08-08T13:46:09.196Z,5.03
2023-08-08T13:48:36.141Z,4.97
2023-08-08T13:51:03.903Z,7.30
2023-08-08T13:53:30.625Z,4.23
2023-08-08T13:55:57.450Z,6.23
2023-08-08T13:58:24.184Z,5.20
2023-08-08T14:00:51.619Z,2.97
2023-08-08T14:03:18.993Z,5.53
2023-08-08T14:05:45.799Z,4.07
2023-08-08T14:08:12.423Z,9.77
2023-08-08T14:10:39.097Z,4.00
2023-08-08T14:13:05.828Z,5.90
2023-08-08T14:15:34.650Z,4.77
2023-08-08T14:18:01.394Z,6.27
2023-08-08T14:20:28.497Z,3.80
2023-08-08T14:22:55.199Z,6.17
2023-08-08T14:25:22.214Z,3.93
2023-08-08T14:27:49.023Z,3.57
2023-08-08T14:30:15.728Z,4.37
2023-08-08T14:32:42.441Z,3.50
2023-08-08T14:35:09.987Z,2.83
2023-08-08T14:37:37.190Z,3.03
2023-08-08T14:40:04.174Z,3.47
2023-08-08T14:42:30.770Z,1.90
2023-08-08T14:44:57.467Z,2.77
2023-08-08T14:47:24.352Z,2.73
2023-08-08T14:49:52.251Z,4.23
2023-08-08T14:52:18.869Z,9.73
2023-08-08T14:54:45.812Z,2.77
2023-08-08T14:57:12.426Z,3.13
2023-08-08T14:59:39.130Z,3.63
2023-08-08T15:02:05.874Z,1.67
2023-08-08T15:04:34.072Z,2.50
2023-08-08T15:07:00.870Z,2.57
2023-08-08T15:09:28.194Z,3.33
2023-08-08T15:11:54.867Z,1.97
2023-08-08T15:14:21.531Z,3.67
2023-08-08T15:16:54.597Z,3.10
2023-08-08T15:19:21.512Z,2.77
2023-08-08T15:21:48.183Z,1.50
2023-08-08T15:24:14.879Z,3.50
2023-08-08T15:26:41.544Z,6.03
2023-08-08T15:29:08.325Z,4.97
2023-08-08T15:31:35.086Z,3.33
2023-08-08T15:34:01.896Z,2.67
2023-08-08T15:36:28.631Z,1.63
2023-08-08T15:38:55.434Z,1.00
2023-08-08T15:41:22.151Z,2.10
2023-08-08T15:43:48.795Z,1.60
2023-08-08T15:46:15.654Z,4.70
2023-08-08T15:48:42.297Z,2.83
2023-08-08T15:51:08.968Z,2.57
2023-08-08T15:53:35.602Z,3.37
2023-08-08T15:56:02.802Z,2.83
2023-08-08T15:58:29.441Z,4.50
2023-08-08T16:00:56.928Z,3.17
2023-08-08T16:03:23.726Z,2.40
2023-08-08T16:05:50.446Z,5.90
2023-08-08T16:08:18.790Z,3.53
2023-08-08T16:10:45.991Z,2.10
2023-08-08T16:13:12.647Z,2.60
2023-08-08T16:15:39.288Z,2.40
2023-08-08T16:18:06.687Z,4.23
2023-08-08T16:20:33.362Z,8.13
2023-08-08T16:23:02.870Z,2.67
2023-08-08T16:25:29.569Z,2.40
2023-08-08T16:27:56.160Z,3.63
2023-08-08T16:30:22.828Z,3.37
2023-08-08T16:32:49.479Z,2.17
2023-08-08T16:35:16.113Z,2.73
2023-08-08T16:37:42.756Z,2.17
2023-08-08T16:40:09.617Z,2.50
2023-08-08T16:42:36.337Z,1.77
2023-08-08T16:45:03.713Z,2.30
2023-08-08T16:47:30.324Z,2.63
2023-08-08T16:49:56.903Z,2.47
2023-08-08T16:52:23.605Z,3.03
2023-08-08T16:54:51.471Z,3.73
2023-08-08T16:57:19.648Z,3.47
2023-08-08T16:59:46.234Z,2.50
2023-08-08T17:02:12.844Z,4.87
2023-08-08T17:04:40.543Z,3.57
2023-08-08T17:07:07.199Z,2.77
2023-08-08T17:09:34.032Z,3.83
2023-08-08T17:12:00.726Z,3.10
2023-08-08T17:14:27.379Z,4.27
2023-08-08T17:16:54.737Z,3.23
2023-08-08T17:19:21.568Z,5.03
2023-08-08T17:21:48.216Z,7.27
2023-08-08T17:24:22.492Z,2.63
2023-08-08T17:26:52.221Z,3.10
2023-08-08T17:29:18.898Z,4.00
2023-08-08T17:31:45.680Z,4.03
2023-08-08T17:34:12.342Z,4.17
2023-08-08T17:36:38.975Z,5.53
2023-08-08T17:39:05.803Z,4.30
2023-08-08T17:41:32.464Z,3.60
2023-08-08T17:43:59.140Z,4.57
2023-08-08T17:46:25.815Z,3.10
2023-08-08T17:48:53.715Z,3.83
2023-08-08T17:51:20.441Z,4.63
2023-08-08T17:53:48.392Z,3.03
2023-08-08T17:56:15.498Z,2.53
2023-08-08T17:58:45.741Z,3.47
2023-08-08T18:01:13.552Z,3.00
2023-08-08T18:03:41.113Z,3.43
2023-08-08T18:06:07.845Z,4.03
2023-08-08T18:08:34.670Z,3.33
2023-08-08T18:11:01.422Z,2.60
2023-08-08T18:13:28.139Z,3.30
2023-08-08T18:15:56.186Z,4.17
2023-08-08T18:18:24.632Z,3.77
2023-08-08T18:20:51.313Z,4.47
2023-08-08T18:23:18.423Z,5.47
2023-08-08T18:25:45.590Z,5.20
2023-08-08T18:28:12.668Z,7.43
2023-08-08T18:30:39.314Z,3.73
2023-08-08T18:33:05.995Z,5.90
2023-08-08T18:35:33.330Z,2.73
2023-08-08T18:38:00.006Z,4.10
2023-08-08T18:40:26.620Z,4.00
2023-08-08T18:42:53.286Z,2.90
2023-08-08T18:45:20.037Z,3.67
2023-08-08T18:47:46.709Z,6.83
2023-08-08T18:50:13.394Z,4.77
2023-08-08T18:52:40.066Z,4.53
2023-08-08T18:55:06.981Z,4.47
2023-08-08T18:57:35.053Z,4.47
2023-08-08T19:00:03.966Z,4.30
2023-08-08T19:02:30.645Z,4.27
2023-08-08T19:04:57.390Z,4.40
2023-08-08T19:07:24.172Z,3.67
2023-08-08T19:09:50.803Z,2.83
2023-08-08T19:12:17.455Z,3.77
2023-08-08T19:14:44.142Z,4.10
2023-08-08T19:17:10.783Z,2.93
2023-08-08T19:19:37.396Z,2.67
2023-08-08T19:22:04.029Z,3.63
2023-08-08T19:24:30.658Z,2.40
2023-08-08T19:26:57.301Z,2.50
2023-08-08T19:29:23.944Z,3.03
2023-08-08T19:31:50.559Z,2.73
2023-08-08T19:34:17.266Z,3.63
2023-08-08T19:36:43.994Z,3.87
2023-08-08T19:39:10.611Z,4.80
2023-08-08T19:41:37.218Z,3.43
2023-08-08T19:44:04.004Z,4.07
2023-08-08T19:46:30.651Z,5.77
2023-08-08T19:48:57.392Z,6.87
2023-08-08T19:51:24.177Z,4.73
2023-08-08T19:53:50.809Z,7.40
2023-08-08T19:56:17.437Z,4.50
2023-08-08T19:58:44.093Z,6.47
2023-08-08T20:01:11.296Z,6.07
2023-08-08T20:03:39.022Z,4.07
2023-08-08T20:06:05.692Z,8.17
2023-08-08T20:08:32.321Z,4.10
2023-08-08T20:10:59.086Z,4.13
2023-08-08T20:13:27.217Z,3.90
2023-08-08T20:15:54.640Z,5.07
2023-08-08T20:18:21.352Z,4.37
2023-08-08T20:20:48.018Z,4.20
2023-08-08T20:23:14.639Z,4.83
2023-08-08T20:25:41.387Z,4.47
2023-08-08T20:28:08.201Z,6.67
2023-08-08T20:30:36.219Z,5.07
2023-08-08T20:33:03.328Z,5.57
2023-08-08T20:35:30.041Z,6.77
2023-08-08T20:37:56.721Z,7.37
2023-08-08T20:40:23.687Z,5.30
2023-08-08T20:42:50.465Z,6.63
2023-08-08T20:45:17.281Z,6.70
2023-08-08T20:47:43.963Z,5.77
2023-08-08T20:50:11.010Z,6.10
2023-08-08T20:52:38.478Z,5.07
2023-08-08T20:55:06.077Z,5.03
2023-08-08T20:57:32.748Z,5.43
2023-08-08T20:59:59.801Z,4.83
2023-08-08T21:02:26.885Z,4.00
2023-08-08T21:04:53.665Z,5.97
2023-08-08T21:07:20.539Z,4.40
2023-08-08T21:09:47.634Z,3.87
2023-08-08T21:12:15.653Z,5.03
2023-08-08T21:14:42.799Z,4.00
2023-08-08T21:17:09.553Z,5.40
2023-08-08T21:19:36.454Z,4.53
2023-08-08T21:22:03.314Z,4.17
2023-08-08T21:24:30.940Z,7.07
2023-08-08T21:26:57.534Z,4.40
2023-08-08T21:29:24.165Z,4.83
2023-08-08T21:31:50.761Z,3.80
2023-08-08T21:34:17.389Z,3.70
2023-08-08T21:36:44.079Z,4.63
2023-08-08T21:39:10.740Z,3.97
2023-08-08T21:41:37.391Z,3.27
2023-08-08T21:44:04.301Z,3.20
2023-08-08T21:46:30.937Z,5.00
2023-08-08T21:48:58.962Z,3.67
2023-08-08T21:51:25.769Z,6.00
2023-08-08T21:53:52.424Z,4.63
2023-08-08T21:56:19.067Z,4.17
2023-08-08T21:58:45.717Z,4.83
2023-08-08T22:01:12.498Z,3.60
2023-08-08T22:03:39.223Z,5.23
2023-08-08T22:06:07.035Z,3.53
2023-08-08T22:08:33.698Z,4.47
2023-08-08T22:11:00.579Z,3.77
2023-08-08T22:13:28.453Z,3.30
2023-08-08T22:15:55.462Z,3.50
2023-08-08T22:18:22.386Z,4.87
2023-08-08T22:20:49.071Z,4.30
2023-08-08T22:23:20.468Z,4.47
2023-08-08T22:25:49.973Z,2.27
2023-08-08T22:28:17.057Z,3.67
2023-08-08T22:30:43.826Z,3.77
2023-08-08T22:33:10.608Z,2.27
2023-08-08T22:35:37.288Z,2.33
2023-08-08T22:38:04.236Z,4.23
2023-08-08T22:40:31.266Z,2.30
2023-08-08T22:42:57.929Z,2.30
2023-08-08T22:45:24.796Z,4.30
2023-08-08T22:47:51.520Z,2.83
2023-08-08T22:50:18.262Z,2.60
2023-08-08T22:52:45.081Z,2.33
2023-08-08T22:55:12.572Z,3.07
2023-08-08T22:57:39.363Z,3.10
2023-08-08T23:00:08.160Z,3.87
2023-08-08T23:02:35.352Z,2.83
2023-08-08T23:05:02.439Z,4.43
2023-08-08T23:07:29.186Z,4.50
2023-08-08T23:09:55.870Z,3.27
2023-08-08T23:12:22.551Z,3.73
2023-08-08T23:14:49.261Z,3.27
2023-08-08T23:17:15.999Z,4.73
2023-08-08T23:19:42.648Z,3.00
2023-08-08T23:22:09.363Z,4.63
2023-08-08T23:24:36.086Z,3.60
2023-08-08T23:27:03.263Z,5.47
2023-08-08T23:29:30.207Z,4.40
2023-08-08T23:31:56.890Z,5.97
2023-08-08T23:34:23.580Z,5.50
2023-08-08T23:36:50.293Z,5.37
2023-08-08T23:39:17.416Z,4.17
2023-08-08T23:41:45.128Z,5.17
2023-08-08T23:44:11.966Z,6.30
2023-08-08T23:46:38.714Z,3.80
2023-08-08T23:49:08.529Z,3.57
2023-08-08T23:51:37.210Z,3.00
2023-08-08T23:54:04.690Z,6.90
2023-08-08T23:56:31.392Z,3.27
2023-08-08T23:58:58.072Z,2.23
